Laird, Canada
Current Conditions -  °F | °C
As of 5:00 AM on Thursday 23 Oct 2014 (Local Time) from CYXE Reporting Station
Few Clouds Few Clouds  
Wind Chill: 26°   Ceiling: Unl
Heat Index: 32°   Visibility: 15mi
Dew Point: 30°   Wind: 6mph
Humidity: 93%   Direction: 140°SE
Pressure: 29.69"   Gusts: NA
Location:  52.72°N, 106.58°W
Report Text: CYXE 231100Z 14005KT 15SM FEW200 00/M01 A2969 RMK CI1 SLP070
Loading
Personal Weather Stations






























Interactive Weather Map
Tropical Storm Tracking
New forecast layout! Learn more

10-Day Weather Forecast

Advertisements
Track Severe Weather on mobile